sensor_id;sensor_type;location;lat;lon;timestamp;P1;durP1;ratioP1;P2;durP2;ratioP2
55350;SDS011;62194;49.480;10.986;2023-02-15T00:00:02;23.38;;;13.77;;
55350;SDS011;62194;49.480;10.986;2023-02-15T00:00:17;22.41;;;13.55;;
55350;SDS011;62194;49.480;10.986;2023-02-15T00:00:32;22.40;;;13.07;;
55350;SDS011;62194;49.480;10.986;2023-02-15T00:00:49;23.07;;;12.90;;
55350;SDS011;62194;49.480;10.986;2023-02-15T00:01:06;21.27;;;12.48;;
55350;SDS011;62194;49.480;10.986;2023-02-15T00:01:18;20.33;;;12.54;;
55350;SDS011;62194;49.480;10.986;2023-02-15T00:01:39;20.74;;;12.95;;
55350;SDS011;62194;49.480;10.986;2023-02-15T00:01:48;21.19;;;12.73;;
55350;SDS011;62194;49.480;10.986;2023-02-15T00:02:51;23.26;;;13.27;;
55350;SDS011;62194;49.480;10.986;2023-02-15T00:03:15;21.97;;;13.19;;
55350;SDS011;62194;49.480;10.986;2023-02-15T00:04:05;21.30;;;13.00;;
55350;SDS011;62194;49.480;10.986;2023-02-15T00:05:00;21.46;;;13.13;;
55350;SDS011;62194;49.480;10.986;2023-02-15T00:05:08;21.60;;;13.40;;
55350;SDS011;62194;49.480;10.986;2023-02-15T00:05:22;22.72;;;13.51;;
55350;SDS011;62194;49.480;10.986;2023-02-15T00:05:44;22.60;;;13.25;;
55350;SDS011;62194;49.480;10.986;2023-02-15T00:05:52;22.10;;;13.25;;
55350;SDS011;62194;49.480;10.986;2023-02-15T00:06:13;22.54;;;13.35;;
55350;SDS011;62194;49.480;10.986;2023-02-15T00:06:29;21.61;;;13.17;;
55350;SDS011;62194;49.480;10.986;2023-02-15T00:06:50;20.96;;;12.89;;
55350;SDS011;62194;49.480;10.986;2023-02-15T00:07:21;21.88;;;12.96;;
55350;SDS011;62194;49.480;10.986;2023-02-15T00:07:34;23.69;;;13.96;;
55350;SDS011;62194;49.480;10.986;2023-02-15T00:07:48;24.03;;;14.03;;
55350;SDS011;62194;49.480;10.986;2023-02-15T00:07:53;22.87;;;13.50;;
55350;SDS011;62194;49.480;10.986;2023-02-15T00:07:59;22.70;;;13.37;;
55350;SDS011;62194;49.480;10.986;2023-02-15T00:08:04;23.52;;;13.63;;
55350;SDS011;62194;49.480;10.986;2023-02-15T00:08:12;23.63;;;13.53;;
55350;SDS011;62194;49.480;10.986;2023-02-15T00:09:04;23.52;;;13.95;;
55350;SDS011;62194;49.480;10.986;2023-02-15T00:09:08;23.44;;;13.39;;
55350;SDS011;62194;49.480;10.986;2023-02-15T00:09:16;23.54;;;14.01;;
55350;SDS011;62194;49.480;10.986;2023-02-15T00:09:24;22.54;;;13.41;;
55350;SDS011;62194;49.480;10.986;2023-02-15T00:09:55;21.80;;;12.95;;
55350;SDS011;62194;49.480;10.986;2023-02-15T00:10:50;21.21;;;12.90;;
55350;SDS011;62194;49.480;10.986;2023-02-15T00:12:24;21.17;;;12.89;;
55350;SDS011;62194;49.480;10.986;2023-02-15T00:12:32;21.96;;;13.54;;
55350;SDS011;62194;49.480;10.986;2023-02-15T00:12:44;20.77;;;12.90;;
55350;SDS011;62194;49.480;10.986;2023-02-15T00:12:57;20.66;;;12.94;;
55350;SDS011;62194;49.480;10.986;2023-02-15T00:13:18;21.61;;;13.69;;
55350;SDS011;62194;49.480;10.986;2023-02-15T00:13:44;22.29;;;13.63;;
55350;SDS011;62194;49.480;10.986;2023-02-15T00:14:19;21.42;;;12.93;;
55350;SDS011;62194;49.480;10.986;2023-02-15T00:14:35;21.34;;;12.68;;
55350;SDS011;62194;49.480;10.986;2023-02-15T00:14:47;21.36;;;12.66;;
55350;SDS011;62194;49.480;10.986;2023-02-15T00:15:38;21.20;;;12.70;;
55350;SDS011;62194;49.480;10.986;2023-02-15T00:15:40;21.72;;;12.73;;
55350;SDS011;62194;49.480;10.986;2023-02-15T00:16:05;20.59;;;12.49;;
55350;SDS011;62194;49.480;10.986;2023-02-15T00:16:20;20.94;;;12.43;;
55350;SDS011;62194;49.480;10.986;2023-02-15T00:16:49;21.33;;;12.80;;
55350;SDS011;62194;49.480;10.986;2023-02-15T00:16:58;21.26;;;12.98;;
55350;SDS011;62194;49.480;10.986;2023-02-15T00:17:27;21.59;;;12.94;;
55350;SDS011;62194;49.480;10.986;2023-02-15T00:17:33;22.10;;;12.66;;
55350;SDS011;62194;49.480;10.986;2023-02-15T00:17:41;21.87;;;12.63;;
55350;SDS011;62194;49.480;10.986;2023-02-15T00:17:49;21.77;;;12.67;;
55350;SDS011;62194;49.480;10.986;2023-02-15T00:17:56;21.92;;;13.10;;
55350;SDS011;62194;49.480;10.986;2023-02-15T00:18:04;20.04;;;12.69;;
55350;SDS011;62194;49.480;10.986;2023-02-15T00:18:15;19.55;;;12.62;;
55350;SDS011;62194;49.480;10.986;2023-02-15T00:18:21;19.53;;;12.17;;
55350;SDS011;62194;49.480;10.986;2023-02-15T00:18:26;20.48;;;12.43;;
55350;SDS011;62194;49.480;10.986;2023-02-15T00:18:31;21.90;;;12.67;;
55350;SDS011;62194;49.480;10.986;2023-02-15T00:18:38;21.58;;;12.70;;
55350;SDS011;62194;49.480;10.986;2023-02-15T00:18:44;22.04;;;12.76;;
55350;SDS011;62194;49.480;10.986;2023-02-15T00:18:52;22.77;;;12.87;;
55350;SDS011;62194;49.480;10.986;2023-02-15T00:19:01;22.37;;;12.90;;
55350;SDS011;62194;49.480;10.986;2023-02-15T00:19:07;22.40;;;12.80;;
55350;SDS011;62194;49.480;10.986;2023-02-15T00:19:14;22.52;;;12.70;;
55350;SDS011;62194;49.480;10.986;2023-02-15T00:19:20;22.58;;;12.82;;
55350;SDS011;62194;49.480;10.986;2023-02-15T00:19:26;22.17;;;12.87;;
55350;SDS011;62194;49.480;10.986;2023-02-15T00:19:37;22.29;;;13.00;;
55350;SDS011;62194;49.480;10.986;2023-02-15T00:19:47;22.97;;;13.37;;
55350;SDS011;62194;49.480;10.986;2023-02-15T00:19:53;23.64;;;13.69;;
55350;SDS011;62194;49.480;10.986;2023-02-15T00:19:58;23.57;;;13.83;;
55350;SDS011;62194;49.480;10.986;2023-02-15T00:20:11;23.44;;;13.90;;
55350;SDS011;62194;49.480;10.986;2023-02-15T00:20:19;22.53;;;13.63;;
55350;SDS011;62194;49.480;10.986;2023-02-15T00:20:25;21.87;;;13.49;;
55350;SDS011;62194;49.480;10.986;2023-02-15T00:20:35;21.28;;;13.20;;
55350;SDS011;62194;49.480;10.986;2023-02-15T00:20:48;21.57;;;13.10;;
55350;SDS011;62194;49.480;10.986;2023-02-15T00:20:56;21.35;;;13.02;;
55350;SDS011;62194;49.480;10.986;2023-02-15T00:21:08;21.92;;;13.20;;
55350;SDS011;62194;49.480;10.986;2023-02-15T00:21:17;22.14;;;13.50;;
55350;SDS011;62194;49.480;10.986;2023-02-15T00:21:23;23.07;;;13.57;;
55350;SDS011;62194;49.480;10.986;2023-02-15T00:21:29;23.37;;;13.77;;
55350;SDS011;62194;49.480;10.986;2023-02-15T00:21:36;23.07;;;13.80;;
55350;SDS011;62194;49.480;10.986;2023-02-15T00:21:43;22.92;;;13.82;;
55350;SDS011;62194;49.480;10.986;2023-02-15T00:21:49;23.10;;;14.13;;
55350;SDS011;62194;49.480;10.986;2023-02-15T00:21:55;23.47;;;14.50;;
55350;SDS011;62194;49.480;10.986;2023-02-15T00:22:00;22.88;;;14.48;;
55350;SDS011;62194;49.480;10.986;2023-02-15T00:22:06;22.53;;;14.20;;
55350;SDS011;62194;49.480;10.986;2023-02-15T00:22:11;22.30;;;14.30;;
55350;SDS011;62194;49.480;10.986;2023-02-15T00:22:17;22.07;;;14.20;;
55350;SDS011;62194;49.480;10.986;2023-02-15T00:22:25;21.51;;;13.83;;
55350;SDS011;62194;49.480;10.986;2023-02-15T00:22:31;21.77;;;13.57;;
55350;SDS011;62194;49.480;10.986;2023-02-15T00:22:36;22.20;;;13.77;;
55350;SDS011;62194;49.480;10.986;2023-02-15T00:22:42;22.70;;;13.50;;
55350;SDS011;62194;49.480;10.986;2023-02-15T00:22:47;23.23;;;13.27;;
55350;SDS011;62194;49.480;10.986;2023-02-15T00:22:53;22.87;;;13.27;;
55350;SDS011;62194;49.480;10.986;2023-02-15T00:22:58;23.02;;;13.70;;
55350;SDS011;62194;49.480;10.986;2023-02-15T00:23:04;22.73;;;13.63;;
55350;SDS011;62194;49.480;10.986;2023-02-15T00:23:09;23.15;;;13.90;;
55350;SDS011;62194;49.480;10.986;2023-02-15T00:23:14;22.43;;;13.97;;
55350;SDS011;62194;49.480;10.986;2023-02-15T00:23:20;22.73;;;14.00;;
55350;SDS011;62194;49.480;10.986;2023-02-15T00:23:26;23.37;;;13.93;;
55350;SDS011;62194;49.480;10.986;2023-02-15T00:23:31;24.23;;;13.85;;
55350;SDS011;62194;49.480;10.986;2023-02-15T00:23:46;24.43;;;13.87;;
55350;SDS011;62194;49.480;10.986;2023-02-15T00:23:53;24.80;;;14.17;;
55350;SDS011;62194;49.480;10.986;2023-02-15T00:23:59;25.13;;;14.40;;
55350;SDS011;62194;49.480;10.986;2023-02-15T00:24:07;24.48;;;14.47;;
55350;SDS011;62194;49.480;10.986;2023-02-15T00:24:15;23.88;;;14.22;;
55350;SDS011;62194;49.480;10.986;2023-02-15T00:24:23;21.63;;;13.60;;
55350;SDS011;62194;49.480;10.986;2023-02-15T00:24:32;21.14;;;13.23;;
55350;SDS011;62194;49.480;10.986;2023-02-15T00:24:40;22.67;;;13.17;;
55350;SDS011;62194;49.480;10.986;2023-02-15T00:24:45;22.90;;;13.47;;
55350;SDS011;62194;49.480;10.986;2023-02-15T00:24:53;23.08;;;13.43;;
55350;SDS011;62194;49.480;10.986;2023-02-15T00:24:58;23.10;;;13.23;;
55350;SDS011;62194;49.480;10.986;2023-02-15T00:25:04;22.70;;;13.13;;
55350;SDS011;62194;49.480;10.986;2023-02-15T00:25:13;21.63;;;13.02;;
55350;SDS011;62194;49.480;10.986;2023-02-15T00:25:18;21.67;;;12.87;;
55350;SDS011;62194;49.480;10.986;2023-02-15T00:25:26;22.07;;;13.17;;
55350;SDS011;62194;49.480;10.986;2023-02-15T00:25:31;21.83;;;13.30;;
55350;SDS011;62194;49.480;10.986;2023-02-15T00:25:36;22.85;;;13.55;;
55350;SDS011;62194;49.480;10.986;2023-02-15T00:25:45;22.37;;;13.53;;
55350;SDS011;62194;49.480;10.986;2023-02-15T00:25:50;22.17;;;13.23;;
55350;SDS011;62194;49.480;10.986;2023-02-15T00:26:11;21.45;;;12.95;;
55350;SDS011;62194;49.480;10.986;2023-02-15T00:26:19;21.64;;;13.06;;
55350;SDS011;62194;49.480;10.986;2023-02-15T00:26:25;23.45;;;13.82;;
55350;SDS011;62194;49.480;10.986;2023-02-15T00:26:34;23.44;;;13.87;;
55350;SDS011;62194;49.480;10.986;2023-02-15T00:26:40;23.40;;;13.70;;
55350;SDS011;62194;49.480;10.986;2023-02-15T00:26:47;23.27;;;13.90;;
55350;SDS011;62194;49.480;10.986;2023-02-15T00:26:52;21.88;;;13.60;;
55350;SDS011;62194;49.480;10.986;2023-02-15T00:27:00;21.52;;;13.66;;
55350;SDS011;62194;49.480;10.986;2023-02-15T00:27:06;22.55;;;13.98;;
55350;SDS011;62194;49.480;10.986;2023-02-15T00:27:11;22.63;;;14.15;;
55350;SDS011;62194;49.480;10.986;2023-02-15T00:27:17;23.00;;;13.93;;
55350;SDS011;62194;49.480;10.986;2023-02-15T00:27:25;23.00;;;13.65;;
55350;SDS011;62194;49.480;10.986;2023-02-15T00:27:30;23.20;;;13.68;;
55350;SDS011;62194;49.480;10.986;2023-02-15T00:27:36;22.73;;;13.77;;
55350;SDS011;62194;49.480;10.986;2023-02-15T00:27:41;22.35;;;13.57;;
55350;SDS011;62194;49.480;10.986;2023-02-15T00:27:47;22.00;;;13.60;;
55350;SDS011;62194;49.480;10.986;2023-02-15T00:27:52;22.47;;;14.00;;
55350;SDS011;62194;49.480;10.986;2023-02-15T00:27:59;22.88;;;14.23;;
55350;SDS011;62194;49.480;10.986;2023-02-15T00:28:07;22.50;;;13.87;;
55350;SDS011;62194;49.480;10.986;2023-02-15T00:28:13;23.27;;;14.20;;
55350;SDS011;62194;49.480;10.986;2023-02-15T00:28:18;22.92;;;14.10;;
55350;SDS011;62194;49.480;10.986;2023-02-15T00:28:23;22.20;;;13.97;;
55350;SDS011;62194;49.480;10.986;2023-02-15T00:28:29;21.58;;;13.82;;
55350;SDS011;62194;49.480;10.986;2023-02-15T00:28:43;21.70;;;13.65;;
55350;SDS011;62194;49.480;10.986;2023-02-15T00:28:49;22.33;;;13.57;;
55350;SDS011;62194;49.480;10.986;2023-02-15T00:28:54;22.57;;;13.50;;
55350;SDS011;62194;49.480;10.986;2023-02-15T00:29:01;22.97;;;13.30;;
55350;SDS011;62194;49.480;10.986;2023-02-15T00:29:07;23.20;;;13.13;;
55350;SDS011;62194;49.480;10.986;2023-02-15T00:29:14;23.37;;;13.17;;
55350;SDS011;62194;49.480;10.986;2023-02-15T00:29:29;22.20;;;13.00;;
55350;SDS011;62194;49.480;10.986;2023-02-15T00:29:35;21.38;;;13.05;;
55350;SDS011;62194;49.480;10.986;2023-02-15T00:29:47;20.89;;;12.93;;
55350;SDS011;62194;49.480;10.986;2023-02-15T00:29:53;20.55;;;13.10;;
55350;SDS011;62194;49.480;10.986;2023-02-15T00:30:01;20.57;;;13.30;;
55350;SDS011;62194;49.480;10.986;2023-02-15T00:30:06;20.23;;;13.07;;
55350;SDS011;62194;49.480;10.986;2023-02-15T00:30:17;20.60;;;12.87;;
55350;SDS011;62194;49.480;10.986;2023-02-15T00:30:22;20.07;;;12.57;;
55350;SDS011;62194;49.480;10.986;2023-02-15T00:30:28;20.20;;;12.23;;
55350;SDS011;62194;49.480;10.986;2023-02-15T00:30:36;20.57;;;12.37;;
55350;SDS011;62194;49.480;10.986;2023-02-15T00:30:41;20.60;;;12.13;;
55350;SDS011;62194;49.480;10.986;2023-02-15T00:30:47;20.77;;;12.13;;
55350;SDS011;62194;49.480;10.986;2023-02-15T00:31:01;21.30;;;12.38;;
55350;SDS011;62194;49.480;10.986;2023-02-15T00:31:09;21.57;;;12.67;;
55350;SDS011;62194;49.480;10.986;2023-02-15T00:31:19;21.13;;;12.80;;
55350;SDS011;62194;49.480;10.986;2023-02-15T00:31:24;20.77;;;12.47;;
55350;SDS011;62194;49.480;10.986;2023-02-15T00:31:31;20.80;;;12.90;;
55350;SDS011;62194;49.480;10.986;2023-02-15T00:31:38;20.30;;;12.73;;
55350;SDS011;62194;49.480;10.986;2023-02-15T00:31:50;20.63;;;13.00;;
55350;SDS011;62194;49.480;10.986;2023-02-15T00:31:58;20.77;;;13.20;;
55350;SDS011;62194;49.480;10.986;2023-02-15T00:32:03;21.00;;;13.00;;
55350;SDS011;62194;49.480;10.986;2023-02-15T00:32:09;20.25;;;12.77;;
55350;SDS011;62194;49.480;10.986;2023-02-15T00:32:14;19.77;;;12.53;;
55350;SDS011;62194;49.480;10.986;2023-02-15T00:32:19;20.58;;;12.85;;
55350;SDS011;62194;49.480;10.986;2023-02-15T00:32:28;20.70;;;12.70;;
55350;SDS011;62194;49.480;10.986;2023-02-15T00:32:39;21.13;;;12.57;;
55350;SDS011;62194;49.480;10.986;2023-02-15T00:32:49;20.87;;;12.33;;
55350;SDS011;62194;49.480;10.986;2023-02-15T00:32:58;21.00;;;12.30;;
55350;SDS011;62194;49.480;10.986;2023-02-15T00:33:03;20.42;;;12.32;;
55350;SDS011;62194;49.480;10.986;2023-02-15T00:33:09;19.90;;;12.23;;
55350;SDS011;62194;49.480;10.986;2023-02-15T00:33:17;20.50;;;12.37;;
55350;SDS011;62194;49.480;10.986;2023-02-15T00:33:23;19.75;;;11.98;;
55350;SDS011;62194;49.480;10.986;2023-02-15T00:33:29;20.07;;;12.40;;
55350;SDS011;62194;49.480;10.986;2023-02-15T00:33:37;20.80;;;12.43;;
55350;SDS011;62194;49.480;10.986;2023-02-15T00:33:46;21.30;;;12.48;;
55350;SDS011;62194;49.480;10.986;2023-02-15T00:33:52;21.70;;;12.50;;
55350;SDS011;62194;49.480;10.986;2023-02-15T00:34:05;22.10;;;12.33;;
55350;SDS011;62194;49.480;10.986;2023-02-15T00:34:17;20.90;;;12.30;;
55350;SDS011;62194;49.480;10.986;2023-02-15T00:34:27;21.93;;;12.93;;
55350;SDS011;62194;49.480;10.986;2023-02-15T00:34:33;22.79;;;13.27;;
55350;SDS011;62194;49.480;10.986;2023-02-15T00:34:41;23.93;;;13.63;;
55350;SDS011;62194;49.480;10.986;2023-02-15T00:34:49;22.57;;;13.43;;
55350;SDS011;62194;49.480;10.986;2023-02-15T00:34:59;22.72;;;13.12;;
55350;SDS011;62194;49.480;10.986;2023-02-15T00:35:07;21.37;;;12.63;;
55350;SDS011;62194;49.480;10.986;2023-02-15T00:35:15;20.80;;;12.30;;
55350;SDS011;62194;49.480;10.986;2023-02-15T00:35:21;20.67;;;12.43;;
55350;SDS011;62194;49.480;10.986;2023-02-15T00:35:31;20.94;;;12.76;;
55350;SDS011;62194;49.480;10.986;2023-02-15T00:35:36;21.92;;;13.12;;
55350;SDS011;62194;49.480;10.986;2023-02-15T00:35:45;21.10;;;12.90;;
55350;SDS011;62194;49.480;10.986;2023-02-15T00:35:55;21.17;;;12.70;;
55350;SDS011;62194;49.480;10.986;2023-02-15T00:36:08;20.57;;;12.33;;
55350;SDS011;62194;49.480;10.986;2023-02-15T00:36:19;20.43;;;12.00;;
55350;SDS011;62194;49.480;10.986;2023-02-15T00:36:24;20.73;;;12.10;;
55350;SDS011;62194;49.480;10.986;2023-02-15T00:36:33;20.97;;;12.33;;
55350;SDS011;62194;49.480;10.986;2023-02-15T00:36:39;21.17;;;12.52;;
55350;SDS011;62194;49.480;10.986;2023-02-15T00:36:44;21.67;;;12.97;;
55350;SDS011;62194;49.480;10.986;2023-02-15T00:36:53;21.23;;;12.77;;
55350;SDS011;62194;49.480;10.986;2023-02-15T00:37:02;20.00;;;12.40;;
55350;SDS011;62194;49.480;10.986;2023-02-15T00:37:07;20.50;;;12.35;;
55350;SDS011;62194;49.480;10.986;2023-02-15T00:37:13;20.00;;;11.97;;
55350;SDS011;62194;49.480;10.986;2023-02-15T00:37:23;20.93;;;12.07;;
55350;SDS011;62194;49.480;10.986;2023-02-15T00:37:29;21.13;;;12.13;;
55350;SDS011;62194;49.480;10.986;2023-02-15T00:37:34;22.07;;;12.63;;
55350;SDS011;62194;49.480;10.986;2023-02-15T00:37:40;21.98;;;12.85;;
55350;SDS011;62194;49.480;10.986;2023-02-15T00:37:57;21.42;;;12.93;;
55350;SDS011;62194;49.480;10.986;2023-02-15T00:38:05;21.13;;;12.80;;
55350;SDS011;62194;49.480;10.986;2023-02-15T00:38:15;20.57;;;12.30;;
55350;SDS011;62194;49.480;10.986;2023-02-15T00:38:21;20.17;;;12.27;;
55350;SDS011;62194;49.480;10.986;2023-02-15T00:38:27;20.38;;;12.50;;
55350;SDS011;62194;49.480;10.986;2023-02-15T00:38:33;20.36;;;12.74;;
55350;SDS011;62194;49.480;10.986;2023-02-15T00:38:47;20.47;;;13.00;;
55350;SDS011;62194;49.480;10.986;2023-02-15T00:38:53;20.63;;;13.21;;
55350;SDS011;62194;49.480;10.986;2023-02-15T00:39:01;20.79;;;13.10;;
55350;SDS011;62194;49.480;10.986;2023-02-15T00:39:07;20.30;;;12.73;;
55350;SDS011;62194;49.480;10.986;2023-02-15T00:39:26;20.43;;;12.30;;
55350;SDS011;62194;49.480;10.986;2023-02-15T00:39:38;20.75;;;12.33;;
55350;SDS011;62194;49.480;10.986;2023-02-15T00:39:46;20.67;;;12.35;;
55350;SDS011;62194;49.480;10.986;2023-02-15T00:40:01;19.97;;;11.93;;
55350;SDS011;62194;49.480;10.986;2023-02-15T00:40:09;19.97;;;11.87;;
55350;SDS011;62194;49.480;10.986;2023-02-15T00:40:20;19.53;;;12.10;;
55350;SDS011;62194;49.480;10.986;2023-02-15T00:40:28;18.80;;;11.83;;
55350;SDS011;62194;49.480;10.986;2023-02-15T00:40:34;19.05;;;12.10;;
55350;SDS011;62194;49.480;10.986;2023-02-15T00:40:39;19.50;;;12.20;;
55350;SDS011;62194;49.480;10.986;2023-02-15T00:40:51;19.55;;;12.07;;
55350;SDS011;62194;49.480;10.986;2023-02-15T00:40:58;19.50;;;12.43;;
55350;SDS011;62194;49.480;10.986;2023-02-15T00:41:05;19.43;;;12.33;;
55350;SDS011;62194;49.480;10.986;2023-02-15T00:41:32;20.53;;;12.70;;
55350;SDS011;62194;49.480;10.986;2023-02-15T00:41:38;19.95;;;12.70;;
55350;SDS011;62194;49.480;10.986;2023-02-15T00:41:44;19.73;;;12.73;;
55350;SDS011;62194;49.480;10.986;2023-02-15T00:41:51;20.17;;;12.57;;
55350;SDS011;62194;49.480;10.986;2023-02-15T00:41:59;20.53;;;12.70;;
55350;SDS011;62194;49.480;10.986;2023-02-15T00:42:04;20.70;;;12.53;;
55350;SDS011;62194;49.480;10.986;2023-02-15T00:42:14;22.03;;;12.63;;
55350;SDS011;62194;49.480;10.986;2023-02-15T00:42:23;21.22;;;12.48;;
55350;SDS011;62194;49.480;10.986;2023-02-15T00:42:29;21.70;;;12.73;;
55350;SDS011;62194;49.480;10.986;2023-02-15T00:42:37;21.30;;;12.68;;
55350;SDS011;62194;49.480;10.986;2023-02-15T00:43:00;20.70;;;12.50;;
55350;SDS011;62194;49.480;10.986;2023-02-15T00:43:09;19.77;;;12.70;;
55350;SDS011;62194;49.480;10.986;2023-02-15T00:43:14;19.33;;;12.47;;
55350;SDS011;62194;49.480;10.986;2023-02-15T00:43:20;18.77;;;12.20;;
55350;SDS011;62194;49.480;10.986;2023-02-15T00:43:26;18.30;;;12.00;;
55350;SDS011;62194;49.480;10.986;2023-02-15T00:43:38;18.33;;;11.90;;
55350;SDS011;62194;49.480;10.986;2023-02-15T00:43:44;18.17;;;12.07;;
55350;SDS011;62194;49.480;10.986;2023-02-15T00:43:52;19.27;;;12.27;;
55350;SDS011;62194;49.480;10.986;2023-02-15T00:44:01;19.73;;;12.23;;
55350;SDS011;62194;49.480;10.986;2023-02-15T00:44:06;19.20;;;12.00;;
55350;SDS011;62194;49.480;10.986;2023-02-15T00:44:16;19.63;;;11.77;;
55350;SDS011;62194;49.480;10.986;2023-02-15T00:44:21;20.15;;;12.00;;
55350;SDS011;62194;49.480;10.986;2023-02-15T00:44:27;19.77;;;12.13;;
55350;SDS011;62194;49.480;10.986;2023-02-15T00:44:35;20.43;;;12.23;;
55350;SDS011;62194;49.480;10.986;2023-02-15T00:44:46;18.43;;;11.73;;
55350;SDS011;62194;49.480;10.986;2023-02-15T00:44:52;17.77;;;11.65;;
55350;SDS011;62194;49.480;10.986;2023-02-15T00:45:04;18.23;;;11.87;;
55350;SDS011;62194;49.480;10.986;2023-02-15T00:45:09;19.10;;;12.13;;
55350;SDS011;62194;49.480;10.986;2023-02-15T00:45:20;19.84;;;12.37;;
55350;SDS011;62194;49.480;10.986;2023-02-15T00:45:26;20.55;;;12.40;;
55350;SDS011;62194;49.480;10.986;2023-02-15T00:45:31;20.47;;;12.20;;
55350;SDS011;62194;49.480;10.986;2023-02-15T00:45:39;19.77;;;12.10;;
55350;SDS011;62194;49.480;10.986;2023-02-15T00:45:49;20.27;;;11.95;;
55350;SDS011;62194;49.480;10.986;2023-02-15T00:45:55;19.40;;;12.23;;
55350;SDS011;62194;49.480;10.986;2023-02-15T00:46:01;19.02;;;12.32;;
55350;SDS011;62194;49.480;10.986;2023-02-15T00:46:08;18.97;;;12.53;;
55350;SDS011;62194;49.480;10.986;2023-02-15T00:46:14;18.57;;;12.50;;
55350;SDS011;62194;49.480;10.986;2023-02-15T00:46:25;18.73;;;12.00;;
55350;SDS011;62194;49.480;10.986;2023-02-15T00:46:39;17.90;;;11.87;;
55350;SDS011;62194;49.480;10.986;2023-02-15T00:47:05;19.33;;;12.30;;
55350;SDS011;62194;49.480;10.986;2023-02-15T00:47:11;20.93;;;13.07;;
55350;SDS011;62194;49.480;10.986;2023-02-15T00:47:16;21.17;;;13.03;;
55350;SDS011;62194;49.480;10.986;2023-02-15T00:47:24;20.27;;;12.67;;
55350;SDS011;62194;49.480;10.986;2023-02-15T00:47:30;20.43;;;12.60;;
55350;SDS011;62194;49.480;10.986;2023-02-15T00:47:41;19.97;;;12.10;;
55350;SDS011;62194;49.480;10.986;2023-02-15T00:47:46;19.92;;;12.13;;
55350;SDS011;62194;49.480;10.986;2023-02-15T00:47:52;20.33;;;12.43;;
55350;SDS011;62194;49.480;10.986;2023-02-15T00:47:57;20.13;;;12.43;;
55350;SDS011;62194;49.480;10.986;2023-02-15T00:48:10;18.81;;;12.20;;
55350;SDS011;62194;49.480;10.986;2023-02-15T00:48:19;18.85;;;12.60;;
55350;SDS011;62194;49.480;10.986;2023-02-15T00:48:25;18.02;;;12.28;;
55350;SDS011;62194;49.480;10.986;2023-02-15T00:48:33;18.44;;;12.28;;
55350;SDS011;62194;49.480;10.986;2023-02-15T00:48:38;18.50;;;12.13;;
55350;SDS011;62194;49.480;10.986;2023-02-15T00:48:44;18.63;;;11.90;;
55350;SDS011;62194;49.480;10.986;2023-02-15T00:48:49;19.42;;;12.07;;
55350;SDS011;62194;49.480;10.986;2023-02-15T00:48:58;19.53;;;12.13;;
55350;SDS011;62194;49.480;10.986;2023-02-15T00:49:03;19.40;;;11.97;;
55350;SDS011;62194;49.480;10.986;2023-02-15T00:49:10;20.43;;;12.00;;
55350;SDS011;62194;49.480;10.986;2023-02-15T00:49:15;19.80;;;11.63;;
55350;SDS011;62194;49.480;10.986;2023-02-15T00:49:21;19.53;;;11.47;;
55350;SDS011;62194;49.480;10.986;2023-02-15T00:49:26;19.83;;;11.68;;
55350;SDS011;62194;49.480;10.986;2023-02-15T00:49:31;19.67;;;11.50;;
55350;SDS011;62194;49.480;10.986;2023-02-15T00:49:37;18.63;;;11.73;;
55350;SDS011;62194;49.480;10.986;2023-02-15T00:49:45;18.33;;;12.13;;
55350;SDS011;62194;49.480;10.986;2023-02-15T00:49:57;18.47;;;12.23;;
55350;SDS011;62194;49.480;10.986;2023-02-15T00:50:02;20.14;;;12.74;;
55350;SDS011;62194;49.480;10.986;2023-02-15T00:50:08;20.80;;;12.85;;
55350;SDS011;62194;49.480;10.986;2023-02-15T00:50:18;22.03;;;13.20;;
55350;SDS011;62194;49.480;10.986;2023-02-15T00:50:24;21.97;;;13.17;;
55350;SDS011;62194;49.480;10.986;2023-02-15T00:50:30;21.30;;;12.70;;
55350;SDS011;62194;49.480;10.986;2023-02-15T00:50:38;20.73;;;12.52;;
55350;SDS011;62194;49.480;10.986;2023-02-15T00:50:52;18.88;;;11.99;;
55350;SDS011;62194;49.480;10.986;2023-02-15T00:50:59;18.37;;;11.88;;
55350;SDS011;62194;49.480;10.986;2023-02-15T00:51:05;19.33;;;12.00;;
55350;SDS011;62194;49.480;10.986;2023-02-15T00:51:13;20.92;;;12.27;;
55350;SDS011;62194;49.480;10.986;2023-02-15T00:51:22;20.87;;;12.49;;
55350;SDS011;62194;49.480;10.986;2023-02-15T00:51:33;20.25;;;12.38;;
55350;SDS011;62194;49.480;10.986;2023-02-15T00:51:39;18.33;;;12.10;;
55350;SDS011;62194;49.480;10.986;2023-02-15T00:51:44;18.63;;;11.90;;
55350;SDS011;62194;49.480;10.986;2023-02-15T00:51:52;18.77;;;11.82;;
55350;SDS011;62194;49.480;10.986;2023-02-15T00:52:04;19.93;;;12.17;;
55350;SDS011;62194;49.480;10.986;2023-02-15T00:52:09;20.45;;;12.15;;
55350;SDS011;62194;49.480;10.986;2023-02-15T00:52:15;20.20;;;11.97;;
55350;SDS011;62194;49.480;10.986;2023-02-15T00:52:20;20.20;;;11.93;;
55350;SDS011;62194;49.480;10.986;2023-02-15T00:52:28;18.87;;;11.73;;
55350;SDS011;62194;49.480;10.986;2023-02-15T00:52:34;19.27;;;11.80;;
55350;SDS011;62194;49.480;10.986;2023-02-15T00:52:45;19.20;;;11.90;;
55350;SDS011;62194;49.480;10.986;2023-02-15T00:52:50;19.77;;;12.13;;
55350;SDS011;62194;49.480;10.986;2023-02-15T00:53:04;19.10;;;11.90;;
55350;SDS011;62194;49.480;10.986;2023-02-15T00:53:18;19.70;;;12.25;;
55350;SDS011;62194;49.480;10.986;2023-02-15T00:53:29;19.30;;;12.02;;
55350;SDS011;62194;49.480;10.986;2023-02-15T00:53:34;19.55;;;12.20;;
55350;SDS011;62194;49.480;10.986;2023-02-15T00:53:40;19.17;;;12.17;;
55350;SDS011;62194;49.480;10.986;2023-02-15T00:53:46;18.42;;;11.88;;
55350;SDS011;62194;49.480;10.986;2023-02-15T00:53:51;17.95;;;11.70;;
55350;SDS011;62194;49.480;10.986;2023-02-15T00:53:57;18.53;;;11.80;;
55350;SDS011;62194;49.480;10.986;2023-02-15T00:54:02;18.83;;;11.77;;
55350;SDS011;62194;49.480;10.986;2023-02-15T00:54:08;19.33;;;11.83;;
55350;SDS011;62194;49.480;10.986;2023-02-15T00:54:13;19.73;;;12.02;;
55350;SDS011;62194;49.480;10.986;2023-02-15T00:54:18;19.37;;;12.00;;
55350;SDS011;62194;49.480;10.986;2023-02-15T00:54:24;18.85;;;11.75;;
55350;SDS011;62194;49.480;10.986;2023-02-15T00:54:29;18.20;;;11.57;;
55350;SDS011;62194;49.480;10.986;2023-02-15T00:54:38;18.02;;;11.70;;
55350;SDS011;62194;49.480;10.986;2023-02-15T00:54:43;18.07;;;11.60;;
55350;SDS011;62194;49.480;10.986;2023-02-15T00:54:49;18.63;;;11.73;;
55350;SDS011;62194;49.480;10.986;2023-02-15T00:54:54;18.55;;;11.88;;
55350;SDS011;62194;49.480;10.986;2023-02-15T00:55:02;19.13;;;12.00;;
55350;SDS011;62194;49.480;10.986;2023-02-15T00:55:08;18.87;;;11.90;;
55350;SDS011;62194;49.480;10.986;2023-02-15T00:55:13;18.90;;;11.93;;
55350;SDS011;62194;49.480;10.986;2023-02-15T00:55:19;18.93;;;12.10;;
55350;SDS011;62194;49.480;10.986;2023-02-15T00:55:24;19.42;;;12.05;;
55350;SDS011;62194;49.480;10.986;2023-02-15T00:55:29;19.00;;;11.87;;